createdAt,value
2022-10-03T00:00:00.408Z,243.6
2022-10-03T00:05:00.353Z,237.5
2022-10-03T00:10:00.382Z,256.2
2022-10-03T00:15:00.376Z,259.8
2022-10-03T00:20:00.380Z,244.1
2022-10-03T00:25:00.441Z,230.3
2022-10-03T00:30:00.400Z,222.7
2022-10-03T00:35:00.349Z,226.2
2022-10-03T00:40:00.410Z,238.2
2022-10-03T00:45:00.400Z,247.7
2022-10-03T00:50:00.384Z,225.8
2022-10-03T00:55:00.494Z,245.3
2022-10-03T01:00:00.409Z,244.8
2022-10-03T01:05:00.346Z,255.0
2022-10-03T01:10:00.490Z,245.1
2022-10-03T01:15:00.346Z,241.2
2022-10-03T01:20:00.401Z,251.4
2022-10-03T01:25:00.340Z,257.8
2022-10-03T01:30:00.394Z,256.2
2022-10-03T01:35:00.366Z,253.1
2022-10-03T01:40:00.380Z,241.4
2022-10-03T01:45:00.372Z,245.4
2022-10-03T01:50:00.611Z,235.8
2022-10-03T01:55:00.373Z,258.2
2022-10-03T02:00:00.424Z,263.9
2022-10-03T02:05:00.618Z,256.8
2022-10-03T02:10:00.359Z,231.8
2022-10-03T02:15:00.512Z,223.2
2022-10-03T02:20:00.362Z,237.6
2022-10-03T02:25:00.345Z,246.3
2022-10-03T02:30:00.396Z,233.0
2022-10-03T02:35:00.378Z,233.0
2022-10-03T02:40:00.411Z,235.1
2022-10-03T02:45:00.392Z,237.5
2022-10-03T02:50:00.483Z,244.4
2022-10-03T02:55:00.401Z,243.1
2022-10-03T03:00:00.415Z,263.2
2022-10-03T03:05:00.388Z,239.1
2022-10-03T03:10:00.457Z,239.4
2022-10-03T03:15:00.425Z,235.1
2022-10-03T03:20:00.426Z,242.9
2022-10-03T03:25:00.399Z,250.9
2022-10-03T03:30:00.450Z,214.7
2022-10-03T03:35:00.397Z,236.3
2022-10-03T03:40:00.548Z,244.9
2022-10-03T03:45:00.408Z,235.6
2022-10-03T03:50:00.465Z,245.0
2022-10-03T03:55:00.463Z,238.9
2022-10-03T04:00:00.476Z,248.0
2022-10-03T04:05:00.452Z,241.3
2022-10-03T04:10:00.443Z,235.7
2022-10-03T04:15:00.457Z,250.1
2022-10-03T04:20:00.445Z,257.6
2022-10-03T04:25:00.370Z,246.9
2022-10-03T04:30:00.465Z,232.8
2022-10-03T04:35:00.403Z,234.6
2022-10-03T04:40:00.487Z,241.4
2022-10-03T04:45:00.411Z,240.7
2022-10-03T04:50:00.446Z,249.7
2022-10-03T04:55:00.418Z,247.9
2022-10-03T05:00:00.479Z,252.0
2022-10-03T05:05:00.431Z,240.0
2022-10-03T05:10:13.346Z,253.6
2022-10-03T05:15:00.585Z,265.9
2022-10-03T05:20:00.382Z,262.6
2022-10-03T05:25:00.366Z,277.6
2022-10-03T05:30:00.488Z,265.5
2022-10-03T05:35:00.369Z,272.9
2022-10-03T05:40:00.392Z,269.4
2022-10-03T05:45:00.374Z,249.0
2022-10-03T05:50:00.386Z,263.4
2022-10-03T05:55:00.371Z,259.0
2022-10-03T06:00:00.411Z,254.7
2022-10-03T06:05:00.397Z,258.3
2022-10-03T06:10:00.474Z,266.3
2022-10-03T06:15:00.376Z,269.1
2022-10-03T06:20:00.399Z,257.8
2022-10-03T06:25:00.459Z,236.1
2022-10-03T06:30:00.379Z,271.1
2022-10-03T06:35:00.401Z,264.4
2022-10-03T06:40:00.460Z,267.6
2022-10-03T06:45:00.427Z,262.4
2022-10-03T06:50:00.393Z,264.2
2022-10-03T06:55:00.348Z,263.2
2022-10-03T07:00:00.433Z,279.3
2022-10-03T07:05:00.398Z,276.9
2022-10-03T07:10:00.399Z,256.8
2022-10-03T07:15:00.488Z,265.4
2022-10-03T07:20:00.414Z,276.5
2022-10-03T07:25:00.391Z,263.2
2022-10-03T07:30:00.415Z,288.0
2022-10-03T07:35:00.515Z,287.6
2022-10-03T07:40:00.375Z,256.6
2022-10-03T07:45:00.382Z,266.8
2022-10-03T07:50:00.416Z,272.4
2022-10-03T07:55:00.536Z,276.7
2022-10-03T08:00:00.444Z,278.4
2022-10-03T08:05:00.387Z,270.6
2022-10-03T08:10:00.405Z,277.8
2022-10-03T08:15:00.383Z,263.4
2022-10-03T08:20:00.371Z,292.8
2022-10-03T08:25:03.492Z,268.8
2022-10-03T08:30:00.429Z,266.8
2022-10-03T08:35:00.414Z,263.3
2022-10-03T08:40:00.392Z,296.4
2022-10-03T08:45:00.406Z,296.8
2022-10-03T08:50:06.096Z,277.7
2022-10-03T08:55:00.374Z,265.0
2022-10-03T09:00:00.415Z,258.7
2022-10-03T09:05:00.369Z,246.5
2022-10-03T09:10:00.424Z,277.1
2022-10-03T09:15:00.434Z,286.3
2022-10-03T09:20:00.371Z,258.0
2022-10-03T09:25:00.425Z,265.2
2022-10-03T09:30:00.376Z,266.4
2022-10-03T09:35:07.648Z,279.2
2022-10-03T09:40:00.399Z,288.4
2022-10-03T09:45:00.533Z,293.7
2022-10-03T09:50:00.362Z,284.7
2022-10-03T09:55:00.395Z,255.5
2022-10-03T10:00:00.436Z,263.4
2022-10-03T10:05:00.583Z,265.7
2022-10-03T10:10:00.443Z,283.1
2022-10-03T10:15:00.347Z,280.1
2022-10-03T10:20:00.407Z,288.6
2022-10-03T10:25:00.384Z,281.4
2022-10-03T10:30:00.403Z,280.5
2022-10-03T10:35:00.370Z,302.3
2022-10-03T10:40:00.402Z,264.6
2022-10-03T10:45:00.397Z,267.4
2022-10-03T10:50:00.441Z,273.3
2022-10-03T10:55:00.409Z,264.2
2022-10-03T11:00:00.420Z,264.3
2022-10-03T11:05:00.636Z,290.7
2022-10-03T11:10:00.383Z,258.5
2022-10-03T11:15:00.392Z,271.0
2022-10-03T11:20:00.386Z,270.7
2022-10-03T11:25:00.364Z,284.6
2022-10-03T11:30:00.481Z,289.3
2022-10-03T11:35:00.376Z,297.4
2022-10-03T11:40:00.437Z,283.3
2022-10-03T11:45:00.375Z,280.0
2022-10-03T11:50:00.373Z,294.5
2022-10-03T11:55:00.346Z,277.4
2022-10-03T12:00:00.520Z,290.9
2022-10-03T12:05:00.394Z,220.1
2022-10-03T12:10:00.393Z,274.0
2022-10-03T12:15:00.364Z,263.7
2022-10-03T12:20:00.378Z,289.5
2022-10-03T12:25:00.340Z,259.0
2022-10-03T12:30:00.398Z,287.9
2022-10-03T12:35:00.379Z,266.4
2022-10-03T12:40:00.398Z,277.1
2022-10-03T12:45:00.382Z,269.0
2022-10-03T12:50:00.374Z,268.4
2022-10-03T12:55:00.338Z,266.6
2022-10-03T13:00:00.407Z,255.8
2022-10-03T13:05:00.369Z,263.4
2022-10-03T13:10:00.414Z,273.6
2022-10-03T13:15:00.377Z,281.5
2022-10-03T13:20:00.383Z,235.9
2022-10-03T13:25:00.349Z,253.0
2022-10-03T13:30:00.424Z,281.2
2022-10-03T13:35:00.357Z,263.6
2022-10-03T13:40:00.412Z,272.9
2022-10-03T13:45:00.373Z,269.9
2022-10-03T13:50:00.395Z,283.2
2022-10-03T13:55:00.439Z,259.9
2022-10-03T14:00:00.443Z,268.8
2022-10-03T14:05:00.390Z,268.0
2022-10-03T14:10:00.417Z,268.6
2022-10-03T14:15:00.407Z,273.6
2022-10-03T14:20:00.406Z,291.9
2022-10-03T14:25:00.385Z,270.2
2022-10-03T14:30:00.431Z,294.7
2022-10-03T14:35:00.404Z,283.0
2022-10-03T14:40:00.433Z,287.0
2022-10-03T14:45:00.393Z,279.9
2022-10-03T14:50:00.565Z,282.7
2022-10-03T14:55:00.346Z,287.0
2022-10-03T15:00:00.425Z,258.4
2022-10-03T15:05:00.420Z,265.3
2022-10-03T15:10:00.406Z,268.5
2022-10-03T15:15:00.418Z,260.9
2022-10-03T15:20:00.409Z,270.3
2022-10-03T15:25:00.355Z,246.9
2022-10-03T15:30:00.423Z,261.7
2022-10-03T15:35:00.368Z,257.7
2022-10-03T15:40:00.409Z,259.2
2022-10-03T15:45:00.377Z,281.3
2022-10-03T15:50:00.392Z,277.2
2022-10-03T16:00:04.054Z,288.7
2022-10-03T16:05:00.355Z,279.8
2022-10-03T16:10:00.371Z,232.5
2022-10-03T16:15:00.388Z,253.6
2022-10-03T16:20:00.375Z,230.2
2022-10-03T16:25:00.398Z,236.9
2022-10-03T16:30:00.575Z,229.1
2022-10-03T16:35:00.387Z,241.8
2022-10-03T16:40:00.421Z,245.6
2022-10-03T16:45:00.393Z,242.8
2022-10-03T16:50:00.402Z,239.2
2022-10-03T16:55:00.365Z,240.1
2022-10-03T17:00:00.414Z,241.5
2022-10-03T17:05:00.336Z,260.1
2022-10-03T17:10:00.598Z,251.9
2022-10-03T17:15:00.436Z,249.3
2022-10-03T17:20:00.964Z,260.7
2022-10-03T17:25:00.348Z,238.7
2022-10-03T17:30:00.675Z,239.4
2022-10-03T17:35:00.400Z,257.1
2022-10-03T17:40:00.574Z,273.1
2022-10-03T17:45:00.404Z,273.6
2022-10-03T17:50:00.404Z,263.1
2022-10-03T17:55:00.397Z,270.5
2022-10-03T18:00:00.548Z,282.9
2022-10-03T18:05:00.393Z,278.2
2022-10-03T18:10:00.421Z,272.9
2022-10-03T18:15:00.457Z,265.9
2022-10-03T18:20:00.376Z,243.6
2022-10-03T18:25:00.503Z,230.3
2022-10-03T18:30:00.445Z,253.4
2022-10-03T18:35:00.369Z,240.0
2022-10-03T18:45:00.467Z,216.0
2022-10-03T18:50:00.427Z,233.2
2022-10-03T18:55:00.442Z,240.3
2022-10-03T19:00:00.434Z,241.3
2022-10-03T19:05:00.874Z,234.2
2022-10-03T19:10:00.422Z,245.5
2022-10-03T19:15:00.382Z,267.2
2022-10-03T19:20:00.426Z,237.6
2022-10-03T19:25:00.879Z,256.7
2022-10-03T19:30:01.523Z,256.9
2022-10-03T19:35:01.642Z,241.3
2022-10-03T19:40:00.413Z,258.8
2022-10-03T19:45:00.384Z,232.0
2022-10-03T19:50:00.639Z,237.5
2022-10-03T19:55:00.347Z,239.1
2022-10-03T20:00:00.396Z,247.8
2022-10-03T20:05:00.384Z,222.9
2022-10-03T20:10:00.413Z,228.6
2022-10-03T20:15:00.361Z,242.3
2022-10-03T20:20:00.392Z,251.3
2022-10-03T20:25:00.333Z,241.3
2022-10-03T20:30:00.378Z,233.5
2022-10-03T20:35:00.468Z,262.3
2022-10-03T20:40:00.384Z,246.0
2022-10-03T20:45:00.402Z,253.1
2022-10-03T20:50:00.349Z,258.0
2022-10-03T20:55:00.343Z,244.6
2022-10-03T21:00:00.413Z,259.4
2022-10-03T21:05:00.367Z,244.0
2022-10-03T21:10:00.396Z,254.7
2022-10-03T21:15:00.355Z,266.3
2022-10-03T21:20:00.364Z,231.7
2022-10-03T21:25:00.417Z,249.2
2022-10-03T21:30:00.452Z,252.2
2022-10-03T21:35:00.374Z,261.8
2022-10-03T21:40:00.397Z,269.2
2022-10-03T21:45:00.378Z,259.1
2022-10-03T21:50:00.383Z,254.8
2022-10-03T21:55:00.365Z,264.3
2022-10-03T22:00:00.490Z,256.1
2022-10-03T22:05:00.371Z,233.8
2022-10-03T22:10:00.375Z,249.8
2022-10-03T22:15:00.467Z,260.9
2022-10-03T22:20:00.373Z,254.0
2022-10-03T22:25:00.375Z,254.8
2022-10-03T22:30:00.419Z,233.4
2022-10-03T22:35:00.359Z,255.3
2022-10-03T22:40:00.385Z,232.6
2022-10-03T22:45:00.357Z,247.5
2022-10-03T22:50:00.397Z,267.2
2022-10-03T22:55:00.346Z,264.9
2022-10-03T23:00:00.418Z,242.5
2022-10-03T23:05:00.356Z,256.8
2022-10-03T23:10:00.386Z,252.4
2022-10-03T23:15:00.464Z,250.2
2022-10-03T23:20:00.463Z,268.3
2022-10-03T23:25:00.358Z,249.9
2022-10-03T23:30:00.500Z,255.2
2022-10-03T23:35:00.356Z,266.3
2022-10-03T23:40:00.388Z,269.6
2022-10-03T23:45:00.349Z,270.1
2022-10-03T23:50:00.371Z,280.3
2022-10-03T23:55:00.354Z,281.7
